createdAt,value
2017-08-17T00:00:47.182Z,68.40
2017-08-17T00:03:13.448Z,68.80
2017-08-17T00:05:39.698Z,68.60
2017-08-17T00:08:05.984Z,68.50
2017-08-17T00:10:32.233Z,68.20
2017-08-17T00:12:58.499Z,68.40
2017-08-17T00:15:25.359Z,68.40
2017-08-17T00:17:51.591Z,68.30
2017-08-17T00:20:17.843Z,68.40
2017-08-17T00:22:44.243Z,68.40
2017-08-17T00:25:17.491Z,68.40
2017-08-17T00:27:44.540Z,68.70
2017-08-17T00:30:10.787Z,68.80
2017-08-17T00:32:37.801Z,69.00
2017-08-17T00:35:04.634Z,68.70
2017-08-17T00:37:30.906Z,69.00
2017-08-17T00:39:57.171Z,69.00
2017-08-17T00:42:24.227Z,68.60
2017-08-17T00:45:02.742Z,69.10
2017-08-17T00:47:29.018Z,69.20
2017-08-17T00:49:55.270Z,69.00
2017-08-17T00:52:21.522Z,69.20
2017-08-17T00:54:48.539Z,69.20
2017-08-17T00:57:14.802Z,69.20
2017-08-17T00:59:41.055Z,69.20
2017-08-17T01:02:08.463Z,69.60
2017-08-17T01:04:34.927Z,69.20
2017-08-17T01:07:01.155Z,69.40
2017-08-17T01:09:27.415Z,69.50
2017-08-17T01:11:53.692Z,68.90
2017-08-17T01:14:19.938Z,69.50
2017-08-17T01:16:46.566Z,69.70
2017-08-17T01:19:12.807Z,69.90
2017-08-17T01:21:39.071Z,70.00
2017-08-17T01:24:05.468Z,69.90
2017-08-17T01:26:32.538Z,70.00
2017-08-17T01:28:58.818Z,70.00
2017-08-17T01:31:25.111Z,70.10
2017-08-17T01:33:51.366Z,70.10
2017-08-17T01:36:17.621Z,69.90
2017-08-17T01:38:44.350Z,70.00
2017-08-17T01:41:11.378Z,70.30
2017-08-17T01:43:37.623Z,70.10
2017-08-17T01:46:04.890Z,70.20
2017-08-17T01:48:31.154Z,70.10
2017-08-17T01:50:57.418Z,70.00
2017-08-17T01:53:24.463Z,69.90
2017-08-17T01:55:51.455Z,70.00
2017-08-17T01:58:17.703Z,70.00
2017-08-17T02:00:44.564Z,70.10
2017-08-17T02:03:10.824Z,70.20
2017-08-17T02:05:37.122Z,70.10
2017-08-17T02:08:03.383Z,70.00
2017-08-17T02:10:29.620Z,70.10
2017-08-17T02:12:55.864Z,70.00
2017-08-17T02:15:22.878Z,70.00
2017-08-17T02:17:49.123Z,70.00
2017-08-17T02:20:15.364Z,69.80
2017-08-17T02:22:45.749Z,70.10
2017-08-17T02:25:11.998Z,70.00
2017-08-17T02:27:38.227Z,70.00
2017-08-17T02:30:07.727Z,70.20
2017-08-17T02:32:33.971Z,70.20
2017-08-17T02:35:00.216Z,70.30
2017-08-17T02:37:27.347Z,70.30
2017-08-17T02:39:53.595Z,70.40
2017-08-17T02:42:19.831Z,70.70
2017-08-17T02:44:47.663Z,70.60
2017-08-17T02:47:15.842Z,70.60
2017-08-17T02:49:42.083Z,70.20
2017-08-17T02:52:09.971Z,70.50
2017-08-17T02:54:36.946Z,70.40
2017-08-17T02:57:03.181Z,70.50
2017-08-17T02:59:29.447Z,70.70
2017-08-17T03:01:55.694Z,71.00
2017-08-17T03:04:21.926Z,71.10
2017-08-17T03:06:48.695Z,71.10
2017-08-17T03:09:15.670Z,71.40
2017-08-17T03:11:41.922Z,71.20
2017-08-17T03:14:09.053Z,71.50
2017-08-17T03:16:35.293Z,71.50
2017-08-17T03:19:01.583Z,71.70
2017-08-17T03:21:27.863Z,71.70
2017-08-17T03:23:54.092Z,71.70
2017-08-17T03:26:20.345Z,71.80
2017-08-17T03:28:49.122Z,71.70
2017-08-17T03:31:15.366Z,71.60
2017-08-17T03:33:41.606Z,71.80
2017-08-17T03:36:07.858Z,71.80
2017-08-17T03:38:34.119Z,71.50
2017-08-17T03:41:00.362Z,71.50
2017-08-17T03:43:27.544Z,71.40
2017-08-17T03:45:53.819Z,71.60
2017-08-17T03:48:22.327Z,72.20
2017-08-17T03:50:50.550Z,71.70
2017-08-17T03:53:16.787Z,71.60
2017-08-17T03:55:43.043Z,71.70
2017-08-17T03:58:09.333Z,71.70
2017-08-17T04:00:36.336Z,72.00
2017-08-17T04:03:02.583Z,71.40
2017-08-17T04:05:28.844Z,71.40
2017-08-17T04:07:55.098Z,71.40
2017-08-17T04:10:22.090Z,71.60
2017-08-17T04:12:48.387Z,71.60
2017-08-17T04:15:15.375Z,71.80
2017-08-17T04:17:41.640Z,71.70
2017-08-17T04:20:07.972Z,71.70
2017-08-17T04:22:34.234Z,71.50
2017-08-17T04:25:01.239Z,71.70
2017-08-17T04:27:27.518Z,71.60
2017-08-17T04:29:53.810Z,71.70
2017-08-17T04:32:20.059Z,71.80
2017-08-17T04:34:46.666Z,72.00
2017-08-17T04:37:12.911Z,71.80
2017-08-17T04:39:39.142Z,72.00
2017-08-17T04:42:05.585Z,72.10
2017-08-17T04:44:39.051Z,72.40
2017-08-17T04:47:06.035Z,72.80
2017-08-17T04:49:33.883Z,72.70
2017-08-17T04:52:00.870Z,72.80
2017-08-17T04:54:27.650Z,72.60
2017-08-17T04:57:17.295Z,72.90
2017-08-17T04:59:43.578Z,72.90
2017-08-17T05:02:10.662Z,73.10
2017-08-17T05:04:36.951Z,73.10
2017-08-17T05:07:03.982Z,73.40
2017-08-17T05:09:30.258Z,73.40
2017-08-17T05:11:56.539Z,73.60
2017-08-17T05:14:23.061Z,73.80
2017-08-17T05:16:49.345Z,73.70
2017-08-17T05:19:16.355Z,73.80
2017-08-17T05:21:42.726Z,73.70
2017-08-17T05:24:09.045Z,74.00
2017-08-17T05:26:35.288Z,74.20
2017-08-17T05:29:01.595Z,74.20
2017-08-17T05:31:27.882Z,74.20
2017-08-17T05:33:54.911Z,75.00
2017-08-17T05:36:21.802Z,74.40
2017-08-17T05:38:48.846Z,74.40
2017-08-17T05:41:15.312Z,74.40
2017-08-17T05:43:41.611Z,74.70
2017-08-17T05:46:07.885Z,74.70
2017-08-17T05:48:34.146Z,74.70
2017-08-17T05:51:12.590Z,74.70
2017-08-17T05:53:39.615Z,75.10
2017-08-17T05:56:05.864Z,75.00
2017-08-17T05:58:32.198Z,75.10
2017-08-17T06:00:58.467Z,75.30
2017-08-17T06:03:25.490Z,75.70
2017-08-17T06:05:51.782Z,75.60
2017-08-17T06:08:18.053Z,75.80
2017-08-17T06:10:44.295Z,76.20
2017-08-17T06:13:10.721Z,76.40
2017-08-17T06:15:37.002Z,76.90
2017-08-17T06:18:03.293Z,76.80
2017-08-17T06:20:29.614Z,76.80
2017-08-17T06:22:55.847Z,77.00
2017-08-17T06:25:22.099Z,77.20
2017-08-17T06:27:48.374Z,77.50
2017-08-17T06:30:14.662Z,77.60
2017-08-17T06:32:40.938Z,77.50
2017-08-17T06:35:07.199Z,77.60
2017-08-17T06:37:34.205Z,78.10
2017-08-17T06:40:00.458Z,78.10
2017-08-17T06:42:26.804Z,78.30
2017-08-17T06:44:53.078Z,78.30
2017-08-17T06:47:19.365Z,78.50
2017-08-17T06:49:45.622Z,78.60
2017-08-17T06:52:13.466Z,78.70
2017-08-17T06:54:39.712Z,79.00
2017-08-17T06:57:06.758Z,79.20
2017-08-17T06:59:33.054Z,79.20
2017-08-17T07:01:59.343Z,79.30
2017-08-17T07:04:25.674Z,79.40
2017-08-17T07:06:52.678Z,79.10
2017-08-17T07:09:18.930Z,79.60
2017-08-17T07:11:45.367Z,79.70
2017-08-17T07:14:11.634Z,79.80
2017-08-17T07:16:37.887Z,79.80
2017-08-17T07:19:04.198Z,80.00
2017-08-17T07:21:30.448Z,80.20
2017-08-17T07:23:57.458Z,80.40
2017-08-17T07:26:24.598Z,80.40
2017-08-17T07:28:50.854Z,80.50
2017-08-17T07:31:17.111Z,80.30
2017-08-17T07:33:43.507Z,80.30
2017-08-17T07:36:09.791Z,80.30
2017-08-17T07:38:36.811Z,80.30
2017-08-17T07:41:03.102Z,80.30
2017-08-17T07:43:29.376Z,80.40
2017-08-17T07:45:55.687Z,80.30
2017-08-17T07:50:55.430Z,80.50
2017-08-17T07:53:23.306Z,81.10
2017-08-17T07:55:49.614Z,81.00
2017-08-17T07:58:16.038Z,80.60
2017-08-17T08:00:43.053Z,81.30
2017-08-17T08:03:09.398Z,81.30
2017-08-17T08:05:35.674Z,81.10
2017-08-17T08:08:02.678Z,81.20
2017-08-17T08:10:28.954Z,81.10
2017-08-17T08:12:55.522Z,80.90
2017-08-17T08:15:21.873Z,80.80
2017-08-17T08:17:48.162Z,81.00
2017-08-17T08:20:15.208Z,81.00
2017-08-17T08:22:41.442Z,81.00
2017-08-17T08:25:07.681Z,81.00
2017-08-17T08:27:33.977Z,81.00
2017-08-17T08:30:00.246Z,80.60
2017-08-17T08:32:26.474Z,81.20
2017-08-17T08:34:53.078Z,81.20
2017-08-17T08:37:19.342Z,80.30
2017-08-17T08:39:45.584Z,79.80
2017-08-17T08:42:11.939Z,80.30
2017-08-17T08:44:38.191Z,79.60
2017-08-17T08:47:05.167Z,79.90
2017-08-17T08:49:31.418Z,79.20
2017-08-17T08:51:57.687Z,79.50
2017-08-17T08:54:35.734Z,79.70
2017-08-17T08:57:02.014Z,79.60
2017-08-17T08:59:28.270Z,79.90
2017-08-17T09:01:54.583Z,80.00
2017-08-17T09:04:21.630Z,80.60
2017-08-17T09:06:47.891Z,80.50
2017-08-17T09:09:14.303Z,79.20
2017-08-17T09:11:40.568Z,78.90
2017-08-17T09:14:06.855Z,78.90
2017-08-17T09:16:34.098Z,78.70
2017-08-17T09:19:00.366Z,78.90
2017-08-17T09:21:26.644Z,79.70
2017-08-17T09:23:53.646Z,79.20
2017-08-17T09:26:19.880Z,79.20
2017-08-17T09:28:46.143Z,78.90
2017-08-17T09:31:12.424Z,78.70
2017-08-17T09:33:38.689Z,78.60
2017-08-17T09:36:04.926Z,79.10
2017-08-17T09:38:31.731Z,79.20
2017-08-17T09:40:58.699Z,78.70
2017-08-17T09:43:24.980Z,78.60
2017-08-17T09:45:51.407Z,78.30
2017-08-17T09:48:17.655Z,77.80
2017-08-17T09:50:43.919Z,77.70
2017-08-17T09:53:10.935Z,77.30
2017-08-17T09:55:47.674Z,77.20
2017-08-17T09:58:14.074Z,77.60
2017-08-17T10:00:41.063Z,77.50
2017-08-17T10:03:07.306Z,76.80
2017-08-17T10:05:33.574Z,77.00
2017-08-17T10:07:59.850Z,76.20
2017-08-17T10:10:26.822Z,76.20
2017-08-17T10:12:53.098Z,76.10
2017-08-17T10:15:19.370Z,76.50
2017-08-17T10:17:45.674Z,76.50
2017-08-17T10:20:11.966Z,76.70
2017-08-17T10:22:38.201Z,76.50
2017-08-17T10:25:04.442Z,76.70
2017-08-17T10:27:30.847Z,76.50
2017-08-17T10:29:57.885Z,77.10
2017-08-17T10:32:24.879Z,77.40
2017-08-17T10:34:51.162Z,77.30
2017-08-17T10:37:18.197Z,76.90
2017-08-17T10:39:44.448Z,77.20
2017-08-17T10:42:10.944Z,77.30
2017-08-17T10:44:37.206Z,77.10
2017-08-17T10:47:03.448Z,76.90
2017-08-17T10:49:29.747Z,76.30
2017-08-17T10:51:56.019Z,76.40
2017-08-17T10:54:22.306Z,76.70
2017-08-17T10:56:49.410Z,76.30
2017-08-17T10:59:15.671Z,76.30
2017-08-17T11:01:42.685Z,75.70
2017-08-17T11:04:10.019Z,75.60
2017-08-17T11:06:36.255Z,75.40
2017-08-17T11:09:02.542Z,75.80
2017-08-17T11:11:28.918Z,75.60
2017-08-17T11:13:55.950Z,75.70
2017-08-17T11:16:22.205Z,75.70
2017-08-17T11:18:48.536Z,75.50
2017-08-17T11:21:14.794Z,75.30
2017-08-17T11:23:41.051Z,75.30
2017-08-17T11:26:07.959Z,74.40
2017-08-17T11:28:34.996Z,75.00
2017-08-17T11:31:01.987Z,75.20
2017-08-17T11:33:28.246Z,75.00
2017-08-17T11:35:54.501Z,74.50
2017-08-17T11:38:21.515Z,76.00
2017-08-17T11:40:47.787Z,75.40
2017-08-17T11:43:14.039Z,75.00
2017-08-17T11:45:41.024Z,74.10
2017-08-17T11:48:08.275Z,74.10
2017-08-17T11:50:34.527Z,74.80
2017-08-17T11:53:00.794Z,75.00
2017-08-17T11:55:27.042Z,75.10
2017-08-17T11:58:05.343Z,75.00
2017-08-17T12:00:31.638Z,74.40
2017-08-17T12:02:57.903Z,74.70
2017-08-17T12:05:24.166Z,73.60
2017-08-17T12:07:52.318Z,73.20
2017-08-17T12:10:18.571Z,73.10
2017-08-17T12:12:44.817Z,73.20
2017-08-17T12:15:11.966Z,74.30
2017-08-17T12:17:38.983Z,74.00
2017-08-17T12:20:05.231Z,73.60
2017-08-17T12:22:31.499Z,73.20
2017-08-17T12:24:58.492Z,71.20
2017-08-17T12:27:24.734Z,71.10
2017-08-17T12:29:51.042Z,70.80
2017-08-17T12:32:17.293Z,70.80
2017-08-17T12:34:43.563Z,70.80
2017-08-17T12:37:09.854Z,70.30
2017-08-17T12:39:36.095Z,70.00
2017-08-17T12:42:02.354Z,69.80
2017-08-17T12:44:28.619Z,69.50
2017-08-17T12:46:54.919Z,69.80
2017-08-17T12:49:21.190Z,69.50
2017-08-17T12:51:48.238Z,70.20
2017-08-17T12:54:14.486Z,70.20
2017-08-17T12:56:40.734Z,69.40
2017-08-17T12:59:07.898Z,70.20
2017-08-17T13:01:34.198Z,70.00
2017-08-17T13:04:01.255Z,69.30
2017-08-17T13:06:28.459Z,70.30
2017-08-17T13:08:54.787Z,71.00
2017-08-17T13:11:21.038Z,70.60
2017-08-17T13:13:47.650Z,71.30
2017-08-17T13:16:14.622Z,71.30
2017-08-17T13:18:40.875Z,71.20
2017-08-17T13:21:07.141Z,72.00
2017-08-17T13:23:33.418Z,69.80
2017-08-17T13:25:59.667Z,69.70
2017-08-17T13:28:26.085Z,68.20
2017-08-17T13:30:52.339Z,67.50
2017-08-17T13:33:18.628Z,67.40
2017-08-17T13:35:44.958Z,67.30
2017-08-17T13:38:11.234Z,67.80
2017-08-17T13:40:38.218Z,69.10
2017-08-17T13:43:04.637Z,69.00
2017-08-17T13:45:37.865Z,70.10
2017-08-17T13:48:04.102Z,69.70
2017-08-17T13:50:30.335Z,66.60
2017-08-17T13:52:56.566Z,66.70
2017-08-17T13:55:23.586Z,67.20
2017-08-17T13:57:49.814Z,66.20
2017-08-17T14:00:17.041Z,67.30
2017-08-17T14:02:44.052Z,69.10
2017-08-17T14:05:10.319Z,69.50
2017-08-17T14:07:37.342Z,70.00
2017-08-17T14:10:03.626Z,69.90
2017-08-17T14:12:29.895Z,70.90
2017-08-17T14:14:56.154Z,71.00
2017-08-17T14:17:23.274Z,70.80
2017-08-17T14:19:49.528Z,71.50
2017-08-17T14:22:15.807Z,71.70
2017-08-17T14:24:42.224Z,71.40
2017-08-17T14:27:08.481Z,71.70
2017-08-17T14:29:34.782Z,70.70
2017-08-17T14:32:01.046Z,71.10
2017-08-17T14:34:27.305Z,73.30
2017-08-17T14:36:54.291Z,73.70
2017-08-17T14:39:21.355Z,73.70
2017-08-17T14:41:47.594Z,74.80
2017-08-17T14:44:13.843Z,75.80
2017-08-17T14:46:40.193Z,76.00
2017-08-17T14:49:06.527Z,76.70
2017-08-17T14:51:32.864Z,76.90
2017-08-17T14:53:59.231Z,77.20
2017-08-17T14:56:25.500Z,77.50
2017-08-17T14:58:51.754Z,77.60
2017-08-17T15:01:30.432Z,78.00
2017-08-17T15:03:56.708Z,78.30
2017-08-17T15:06:22.965Z,77.90
2017-08-17T15:08:49.390Z,77.30
2017-08-17T15:11:15.639Z,77.50
2017-08-17T15:13:41.917Z,77.90
2017-08-17T15:16:08.166Z,77.60
2017-08-17T15:18:35.207Z,78.30
2017-08-17T15:21:01.467Z,78.20
2017-08-17T15:23:28.585Z,78.50
2017-08-17T15:25:55.622Z,78.60
2017-08-17T15:28:22.626Z,78.70
2017-08-17T15:30:48.899Z,78.70
2017-08-17T15:33:15.943Z,79.50
2017-08-17T15:35:42.179Z,79.50
2017-08-17T15:38:08.469Z,79.60
2017-08-17T15:40:34.719Z,79.60
2017-08-17T15:43:00.983Z,79.60
2017-08-17T15:45:27.291Z,79.50
2017-08-17T15:47:53.517Z,80.30
2017-08-17T15:50:19.813Z,80.70
2017-08-17T15:52:46.077Z,80.90
2017-08-17T15:55:12.347Z,81.30
2017-08-17T15:57:38.602Z,81.30
2017-08-17T16:00:04.978Z,81.70
2017-08-17T16:02:32.844Z,82.40
2017-08-17T16:04:59.086Z,82.40
2017-08-17T16:07:26.222Z,83.50
2017-08-17T16:09:53.216Z,83.20
2017-08-17T16:12:19.490Z,83.10
2017-08-17T16:14:46.522Z,83.40
2017-08-17T16:17:12.769Z,83.30
2017-08-17T16:19:39.006Z,83.70
2017-08-17T16:22:05.276Z,84.00
2017-08-17T16:24:31.522Z,84.00
2017-08-17T16:26:57.762Z,84.00
2017-08-17T16:29:24.383Z,83.90
2017-08-17T16:31:50.667Z,84.10
2017-08-17T16:34:16.913Z,84.40
2017-08-17T16:36:43.182Z,84.40
2017-08-17T16:39:09.543Z,84.70
2017-08-17T16:41:35.799Z,84.60
2017-08-17T16:44:02.207Z,84.00
2017-08-17T16:47:06.290Z,84.40
2017-08-17T16:49:33.398Z,85.10
2017-08-17T16:51:59.650Z,84.60
2017-08-17T16:54:25.938Z,84.80
2017-08-17T16:56:52.291Z,85.00
2017-08-17T16:59:18.534Z,85.10
2017-08-17T17:01:44.816Z,85.00
2017-08-17T17:04:23.050Z,84.60
2017-08-17T17:06:49.289Z,84.60
2017-08-17T17:09:15.530Z,84.60
2017-08-17T17:11:42.874Z,84.70
2017-08-17T17:14:09.150Z,83.50
2017-08-17T17:16:35.402Z,83.40
2017-08-17T17:19:01.663Z,83.90
2017-08-17T17:21:28.662Z,84.20
2017-08-17T17:23:54.928Z,84.40
2017-08-17T17:26:21.247Z,84.30
2017-08-17T17:28:47.506Z,84.60
2017-08-17T17:31:13.767Z,84.70
2017-08-17T17:33:40.112Z,84.80
2017-08-17T17:36:06.358Z,84.90
2017-08-17T17:38:32.596Z,84.90
2017-08-17T17:40:58.849Z,85.00
2017-08-17T17:43:25.083Z,85.00
2017-08-17T17:45:51.332Z,85.00
2017-08-17T17:48:17.629Z,85.20
2017-08-17T17:50:43.875Z,85.20
2017-08-17T17:53:10.143Z,85.00
2017-08-17T17:55:36.622Z,85.00
2017-08-17T17:58:03.627Z,84.90
2017-08-17T18:00:29.886Z,84.90
2017-08-17T18:02:56.138Z,84.90
2017-08-17T18:05:34.346Z,85.20
2017-08-17T18:08:01.362Z,85.20
2017-08-17T18:10:27.606Z,85.20
2017-08-17T18:12:53.842Z,85.20
2017-08-17T18:15:20.955Z,85.40
2017-08-17T18:17:47.235Z,85.50
2017-08-17T18:20:13.532Z,85.50
2017-08-17T18:22:39.950Z,85.90
2017-08-17T18:25:06.204Z,85.90
2017-08-17T18:27:32.451Z,85.80
2017-08-17T18:29:58.807Z,85.80
2017-08-17T18:32:25.070Z,85.70
2017-08-17T18:34:52.061Z,86.10
2017-08-17T18:37:19.195Z,85.90
2017-08-17T18:39:45.434Z,85.80
2017-08-17T18:42:11.678Z,85.90
2017-08-17T18:44:37.930Z,85.80
2017-08-17T18:47:04.183Z,85.70
2017-08-17T18:49:30.465Z,85.60
2017-08-17T18:51:57.594Z,85.60
2017-08-17T18:54:23.866Z,85.60
2017-08-17T18:56:50.200Z,85.20
2017-08-17T18:59:16.492Z,85.20
2017-08-17T19:01:42.766Z,85.20
2017-08-17T19:04:09.043Z,85.40
2017-08-17T19:06:48.046Z,85.20
2017-08-17T19:09:14.313Z,85.00
2017-08-17T19:11:40.583Z,85.30
2017-08-17T19:14:07.597Z,85.50
2017-08-17T19:16:34.084Z,85.40
2017-08-17T19:19:00.517Z,85.30
2017-08-17T19:21:26.863Z,85.50
2017-08-17T19:23:54.121Z,85.40
2017-08-17T19:26:21.199Z,85.00
2017-08-17T19:28:47.478Z,85.00
2017-08-17T19:31:13.857Z,85.10
2017-08-17T19:33:40.238Z,85.10
2017-08-17T19:36:07.669Z,85.30
2017-08-17T19:38:34.878Z,85.30
2017-08-17T19:41:01.272Z,85.10
2017-08-17T19:43:28.403Z,84.70
2017-08-17T19:45:54.671Z,84.40
2017-08-17T19:48:21.065Z,84.40
2017-08-17T19:50:48.353Z,84.60
2017-08-17T19:53:14.638Z,84.50
2017-08-17T19:55:41.706Z,84.60
2017-08-17T19:58:08.913Z,84.70
2017-08-17T20:00:35.206Z,84.70
2017-08-17T20:03:02.234Z,85.00
2017-08-17T20:05:30.159Z,85.20
2017-08-17T20:07:57.110Z,85.10
2017-08-17T20:10:23.365Z,85.30
2017-08-17T20:12:49.633Z,85.10
2017-08-17T20:15:15.900Z,85.00
2017-08-17T20:17:42.176Z,85.20
2017-08-17T20:20:08.471Z,85.10
2017-08-17T20:22:34.767Z,84.90
2017-08-17T20:25:01.770Z,84.80
2017-08-17T20:27:29.027Z,85.40
2017-08-17T20:29:55.278Z,84.50
2017-08-17T20:32:21.571Z,84.80
2017-08-17T20:34:47.868Z,84.50
2017-08-17T20:37:14.126Z,85.00
2017-08-17T20:39:40.427Z,85.10
2017-08-17T20:42:06.715Z,85.30
2017-08-17T20:44:33.728Z,85.70
2017-08-17T20:46:59.983Z,85.60
2017-08-17T20:49:27.019Z,85.70
2017-08-17T20:51:53.271Z,85.50
2017-08-17T20:54:19.535Z,85.30
2017-08-17T20:56:45.831Z,85.50
2017-08-17T20:59:12.094Z,85.80
2017-08-17T21:01:39.095Z,85.70
2017-08-17T21:04:05.358Z,85.70
2017-08-17T21:06:31.620Z,85.50
2017-08-17T21:08:59.355Z,85.40
2017-08-17T21:11:26.569Z,85.40
2017-08-17T21:13:52.824Z,85.40
2017-08-17T21:16:19.105Z,85.60
2017-08-17T21:18:45.382Z,85.60
2017-08-17T21:21:11.632Z,85.60
2017-08-17T21:23:37.903Z,85.40
2017-08-17T21:26:04.183Z,85.40
2017-08-17T21:28:30.468Z,85.20
2017-08-17T21:30:56.743Z,85.00
2017-08-17T21:33:24.110Z,85.10
2017-08-17T21:35:50.362Z,85.10
2017-08-17T21:38:16.618Z,85.10
2017-08-17T21:40:42.894Z,85.00
2017-08-17T21:43:09.170Z,85.00
2017-08-17T21:45:35.426Z,85.20
2017-08-17T21:48:01.846Z,85.20
2017-08-17T21:50:28.117Z,85.30
2017-08-17T21:52:54.362Z,85.40
2017-08-17T21:55:20.786Z,85.50
2017-08-17T21:57:47.060Z,85.40
2017-08-17T22:00:14.030Z,85.30
2017-08-17T22:02:40.311Z,85.30
2017-08-17T22:05:06.562Z,85.50
2017-08-17T22:07:33.560Z,85.80
2017-08-17T22:10:00.683Z,85.60
2017-08-17T22:12:27.663Z,85.70
2017-08-17T22:14:54.621Z,85.70
2017-08-17T22:17:21.459Z,85.50
2017-08-17T22:19:47.688Z,85.40
2017-08-17T22:22:13.948Z,84.90
2017-08-17T22:24:40.202Z,84.90
2017-08-17T22:27:06.417Z,85.40
2017-08-17T22:29:32.676Z,85.40
2017-08-17T22:31:58.925Z,85.30
2017-08-17T22:34:25.175Z,85.60
2017-08-17T22:36:51.465Z,85.60
2017-08-17T22:39:17.962Z,85.90
2017-08-17T22:41:44.937Z,86.10
2017-08-17T22:44:11.176Z,86.10
2017-08-17T22:46:37.438Z,86.30
2017-08-17T22:49:03.682Z,86.30
2017-08-17T22:51:29.930Z,86.30
2017-08-17T22:53:56.164Z,86.20
2017-08-17T22:56:22.421Z,86.40
2017-08-17T22:58:49.441Z,87.20
2017-08-17T23:01:16.560Z,86.50
2017-08-17T23:03:42.794Z,86.30
2017-08-17T23:06:09.028Z,86.50
2017-08-17T23:08:35.272Z,86.50
2017-08-17T23:11:02.328Z,86.60
2017-08-17T23:13:28.562Z,86.80
2017-08-17T23:15:54.836Z,86.70
2017-08-17T23:18:21.851Z,86.90
2017-08-17T23:20:48.100Z,86.80
2017-08-17T23:23:14.454Z,86.60
2017-08-17T23:25:40.710Z,86.80
2017-08-17T23:28:07.691Z,86.90
2017-08-17T23:30:34.086Z,86.90
2017-08-17T23:33:01.090Z,86.80
2017-08-17T23:35:27.338Z,86.70
2017-08-17T23:37:53.627Z,86.70
2017-08-17T23:40:20.613Z,86.80
2017-08-17T23:42:46.878Z,86.80
2017-08-17T23:45:13.779Z,86.80
2017-08-17T23:47:40.057Z,86.70
2017-08-17T23:50:06.302Z,86.80
2017-08-17T23:52:32.581Z,86.80
2017-08-17T23:54:58.846Z,86.60
2017-08-17T23:57:25.078Z,86.70
2017-08-17T23:59:51.368Z,86.70
